Aviation Digital Data Service (ADDS)

Output produced by METARs form (0245 UTC 23 September 2018)
found at http://aviationweather.gov/metar/data/
 
KHOU 230153Z 14005KT 10SM BKN250 25/23 A2988 RMK AO2 SLP124 T02500233
KHOU 230202Z 2302/2324 14005KT P6SM OVC250 
     FM230500 15003KT P6SM VCSH BKN025 BKN150 
     FM231200 32006KT P6SM VCSH SCT015 BKN025 
     FM231700 30006KT P6SM BKN035